FABL/BFN METAR and TAF weather

Enter ICAO airport designator
Station Type Date Time Source
FABL METAR 2021/05/13 05:00 UTC NOAA

FABL 130500Z 23002KT CAVOK 01/00 Q1025 NOSIG


Station Type Date Time Source
FABL Decoded METAR 2021/05/13 05:00 UTC NOAA

Bloemfontein, Bloemfontein Airport, South Africa (FABL) 29-06S 026-18E 1400M
May 13, 2021 - 01:00 AM EDT / 2021.05.13 0500 UTC
Wind: from the SW (230 degrees) at 2 MPH (2 KT):0
Visibility: greater than 7 mile(s):0
Temperature: 33 F (1 C)
Dew Point: 32 F (0 C)
Relative Humidity: 93%
Pressure (altimeter): 30.27 in. Hg (1025 hPa)
ob: FABL 130500Z 23002KT CAVOK 01/00 Q1025 NOSIG
cycle: 5

Station Type Date Time Source
FABL TAF 2021/05/13 06:09 UTC NOAA

TAF FABL 130400Z 1306/1406 VRB03KT CAVOK TX26/1313Z TN03/1404Z

Example: see airport list